sensor_id;sensor_type;location;lat;lon;timestamp;P1;durP1;ratioP1;P2;durP2;ratioP2
16524;SDS011;8375;33.594;-117.718;2023-03-31T00:01:11;3.70;;;1.03;;
16524;SDS011;8375;33.594;-117.718;2023-03-31T00:03:40;3.13;;;1.00;;
16524;SDS011;8375;33.594;-117.718;2023-03-31T00:06:10;3.27;;;0.90;;
16524;SDS011;8375;33.594;-117.718;2023-03-31T00:08:44;2.10;;;0.80;;
16524;SDS011;8375;33.594;-117.718;2023-03-31T00:11:15;5.70;;;1.10;;
16524;SDS011;8375;33.594;-117.718;2023-03-31T00:13:46;3.30;;;0.70;;
16524;SDS011;8375;33.594;-117.718;2023-03-31T00:16:15;2.60;;;0.80;;
16524;SDS011;8375;33.594;-117.718;2023-03-31T00:18:44;5.43;;;1.13;;
16524;SDS011;8375;33.594;-117.718;2023-03-31T00:21:16;1.33;;;0.80;;
16524;SDS011;8375;33.594;-117.718;2023-03-31T00:23:54;1.63;;;0.67;;
16524;SDS011;8375;33.594;-117.718;2023-03-31T00:26:24;2.63;;;1.03;;
16524;SDS011;8375;33.594;-117.718;2023-03-31T00:28:54;1.83;;;0.70;;
16524;SDS011;8375;33.594;-117.718;2023-03-31T00:31:24;2.17;;;0.67;;
16524;SDS011;8375;33.594;-117.718;2023-03-31T00:33:53;3.27;;;0.67;;
16524;SDS011;8375;33.594;-117.718;2023-03-31T00:36:22;3.93;;;0.90;;
16524;SDS011;8375;33.594;-117.718;2023-03-31T00:38:53;3.00;;;1.30;;
16524;SDS011;8375;33.594;-117.718;2023-03-31T00:41:23;3.87;;;1.10;;
16524;SDS011;8375;33.594;-117.718;2023-03-31T00:44:01;1.33;;;0.63;;
16524;SDS011;8375;33.594;-117.718;2023-03-31T00:46:35;4.93;;;0.90;;
16524;SDS011;8375;33.594;-117.718;2023-03-31T00:49:11;5.00;;;1.20;;
16524;SDS011;8375;33.594;-117.718;2023-03-31T00:51:45;2.67;;;0.80;;
16524;SDS011;8375;33.594;-117.718;2023-03-31T00:54:18;2.17;;;1.20;;
16524;SDS011;8375;33.594;-117.718;2023-03-31T00:56:50;2.00;;;0.60;;
16524;SDS011;8375;33.594;-117.718;2023-03-31T00:59:25;3.20;;;1.10;;
16524;SDS011;8375;33.594;-117.718;2023-03-31T01:01:57;2.40;;;0.70;;
16524;SDS011;8375;33.594;-117.718;2023-03-31T01:04:30;2.03;;;0.80;;
16524;SDS011;8375;33.594;-117.718;2023-03-31T01:07:04;2.17;;;0.80;;
16524;SDS011;8375;33.594;-117.718;2023-03-31T01:09:37;2.03;;;0.57;;
16524;SDS011;8375;33.594;-117.718;2023-03-31T01:12:07;1.90;;;0.63;;
16524;SDS011;8375;33.594;-117.718;2023-03-31T01:14:39;1.07;;;0.40;;
16524;SDS011;8375;33.594;-117.718;2023-03-31T01:17:11;1.37;;;0.50;;
16524;SDS011;8375;33.594;-117.718;2023-03-31T01:19:48;2.07;;;0.73;;
16524;SDS011;8375;33.594;-117.718;2023-03-31T01:25:44;3.97;;;0.90;;
16524;SDS011;8375;33.594;-117.718;2023-03-31T01:28:54;2.10;;;0.70;;
16524;SDS011;8375;33.594;-117.718;2023-03-31T01:31:43;2.03;;;0.83;;
16524;SDS011;8375;33.594;-117.718;2023-03-31T01:34:43;2.17;;;0.83;;
16524;SDS011;8375;33.594;-117.718;2023-03-31T01:37:34;4.03;;;0.70;;
16524;SDS011;8375;33.594;-117.718;2023-03-31T01:40:40;4.00;;;0.90;;
16524;SDS011;8375;33.594;-117.718;2023-03-31T01:43:24;10.57;;;1.70;;
16524;SDS011;8375;33.594;-117.718;2023-03-31T01:46:00;3.57;;;1.10;;
16524;SDS011;8375;33.594;-117.718;2023-03-31T01:48:39;6.00;;;0.90;;
16524;SDS011;8375;33.594;-117.718;2023-03-31T01:51:14;6.03;;;1.23;;
16524;SDS011;8375;33.594;-117.718;2023-03-31T01:53:47;4.10;;;1.17;;
16524;SDS011;8375;33.594;-117.718;2023-03-31T01:56:24;2.73;;;0.77;;
16524;SDS011;8375;33.594;-117.718;2023-03-31T01:58:59;3.23;;;1.10;;
16524;SDS011;8375;33.594;-117.718;2023-03-31T02:01:34;3.83;;;0.80;;
16524;SDS011;8375;33.594;-117.718;2023-03-31T02:04:09;3.40;;;1.10;;
16524;SDS011;8375;33.594;-117.718;2023-03-31T02:06:44;2.83;;;1.00;;
16524;SDS011;8375;33.594;-117.718;2023-03-31T02:09:18;4.50;;;0.90;;
16524;SDS011;8375;33.594;-117.718;2023-03-31T02:11:52;3.77;;;1.10;;
16524;SDS011;8375;33.594;-117.718;2023-03-31T02:14:25;3.20;;;1.10;;
16524;SDS011;8375;33.594;-117.718;2023-03-31T02:16:57;1.70;;;0.80;;
16524;SDS011;8375;33.594;-117.718;2023-03-31T02:19:28;2.60;;;0.87;;
16524;SDS011;8375;33.594;-117.718;2023-03-31T02:22:01;3.23;;;0.90;;
16524;SDS011;8375;33.594;-117.718;2023-03-31T02:24:33;5.03;;;0.90;;
16524;SDS011;8375;33.594;-117.718;2023-03-31T02:27:05;2.03;;;1.47;;
16524;SDS011;8375;33.594;-117.718;2023-03-31T02:29:39;3.80;;;0.73;;
16524;SDS011;8375;33.594;-117.718;2023-03-31T02:32:10;5.07;;;0.73;;
16524;SDS011;8375;33.594;-117.718;2023-03-31T02:34:45;2.43;;;0.73;;
16524;SDS011;8375;33.594;-117.718;2023-03-31T02:37:13;4.67;;;1.03;;
16524;SDS011;8375;33.594;-117.718;2023-03-31T02:39:43;2.60;;;1.10;;
16524;SDS011;8375;33.594;-117.718;2023-03-31T02:42:15;5.87;;;1.10;;
16524;SDS011;8375;33.594;-117.718;2023-03-31T02:44:45;5.33;;;1.10;;
16524;SDS011;8375;33.594;-117.718;2023-03-31T02:47:14;4.17;;;1.27;;
16524;SDS011;8375;33.594;-117.718;2023-03-31T02:49:46;3.83;;;0.93;;
16524;SDS011;8375;33.594;-117.718;2023-03-31T02:52:25;3.17;;;1.13;;
16524;SDS011;8375;33.594;-117.718;2023-03-31T02:55:18;2.03;;;0.87;;
16524;SDS011;8375;33.594;-117.718;2023-03-31T02:58:11;4.67;;;1.10;;
16524;SDS011;8375;33.594;-117.718;2023-03-31T03:01:02;1.33;;;0.73;;
16524;SDS011;8375;33.594;-117.718;2023-03-31T03:03:40;5.20;;;1.13;;
16524;SDS011;8375;33.594;-117.718;2023-03-31T03:06:18;4.57;;;0.87;;
16524;SDS011;8375;33.594;-117.718;2023-03-31T03:09:05;6.40;;;1.00;;
16524;SDS011;8375;33.594;-117.718;2023-03-31T03:11:45;2.50;;;1.10;;
16524;SDS011;8375;33.594;-117.718;2023-03-31T03:14:24;2.37;;;1.37;;
16524;SDS011;8375;33.594;-117.718;2023-03-31T03:16:58;4.50;;;1.00;;
16524;SDS011;8375;33.594;-117.718;2023-03-31T03:19:32;4.97;;;0.80;;
16524;SDS011;8375;33.594;-117.718;2023-03-31T03:22:01;3.60;;;1.13;;
16524;SDS011;8375;33.594;-117.718;2023-03-31T03:24:30;5.40;;;1.17;;
16524;SDS011;8375;33.594;-117.718;2023-03-31T03:26:59;1.37;;;0.77;;
16524;SDS011;8375;33.594;-117.718;2023-03-31T03:29:29;3.07;;;0.80;;
16524;SDS011;8375;33.594;-117.718;2023-03-31T03:31:59;5.43;;;1.10;;
16524;SDS011;8375;33.594;-117.718;2023-03-31T03:34:27;3.47;;;0.87;;
16524;SDS011;8375;33.594;-117.718;2023-03-31T03:36:56;3.03;;;1.13;;
16524;SDS011;8375;33.594;-117.718;2023-03-31T03:39:25;2.73;;;0.90;;
16524;SDS011;8375;33.594;-117.718;2023-03-31T03:41:54;6.53;;;1.20;;
16524;SDS011;8375;33.594;-117.718;2023-03-31T03:44:23;4.33;;;0.90;;
16524;SDS011;8375;33.594;-117.718;2023-03-31T03:46:53;6.10;;;1.00;;
16524;SDS011;8375;33.594;-117.718;2023-03-31T03:49:22;4.60;;;1.10;;
16524;SDS011;8375;33.594;-117.718;2023-03-31T03:51:51;5.57;;;1.50;;
16524;SDS011;8375;33.594;-117.718;2023-03-31T03:54:19;8.10;;;1.50;;
16524;SDS011;8375;33.594;-117.718;2023-03-31T03:56:48;6.53;;;1.07;;
16524;SDS011;8375;33.594;-117.718;2023-03-31T03:59:17;3.50;;;1.23;;
16524;SDS011;8375;33.594;-117.718;2023-03-31T04:01:45;10.20;;;1.53;;
16524;SDS011;8375;33.594;-117.718;2023-03-31T04:04:21;3.50;;;1.23;;
16524;SDS011;8375;33.594;-117.718;2023-03-31T04:06:50;3.50;;;1.20;;
16524;SDS011;8375;33.594;-117.718;2023-03-31T04:09:20;4.00;;;1.50;;
16524;SDS011;8375;33.594;-117.718;2023-03-31T04:11:53;6.13;;;1.30;;
16524;SDS011;8375;33.594;-117.718;2023-03-31T04:14:22;4.40;;;1.30;;
16524;SDS011;8375;33.594;-117.718;2023-03-31T04:16:52;5.07;;;1.80;;
16524;SDS011;8375;33.594;-117.718;2023-03-31T04:19:24;9.63;;;1.90;;
16524;SDS011;8375;33.594;-117.718;2023-03-31T04:21:54;4.90;;;1.50;;
16524;SDS011;8375;33.594;-117.718;2023-03-31T04:24:28;7.73;;;1.63;;
16524;SDS011;8375;33.594;-117.718;2023-03-31T04:26:57;6.87;;;1.80;;
16524;SDS011;8375;33.594;-117.718;2023-03-31T04:29:27;5.27;;;1.40;;
16524;SDS011;8375;33.594;-117.718;2023-03-31T04:31:58;8.00;;;1.47;;
16524;SDS011;8375;33.594;-117.718;2023-03-31T04:34:29;4.90;;;1.50;;
16524;SDS011;8375;33.594;-117.718;2023-03-31T04:37:00;3.83;;;1.40;;
16524;SDS011;8375;33.594;-117.718;2023-03-31T04:39:30;7.83;;;1.80;;
16524;SDS011;8375;33.594;-117.718;2023-03-31T04:41:59;5.67;;;1.60;;
16524;SDS011;8375;33.594;-117.718;2023-03-31T04:44:30;4.13;;;1.50;;
16524;SDS011;8375;33.594;-117.718;2023-03-31T04:46:59;2.87;;;1.37;;
16524;SDS011;8375;33.594;-117.718;2023-03-31T04:49:30;6.07;;;1.57;;
16524;SDS011;8375;33.594;-117.718;2023-03-31T04:52:00;5.90;;;1.50;;
16524;SDS011;8375;33.594;-117.718;2023-03-31T04:54:34;5.97;;;1.97;;
16524;SDS011;8375;33.594;-117.718;2023-03-31T04:57:04;4.43;;;1.93;;
16524;SDS011;8375;33.594;-117.718;2023-03-31T04:59:34;5.93;;;1.97;;
16524;SDS011;8375;33.594;-117.718;2023-03-31T05:02:02;3.73;;;1.60;;
16524;SDS011;8375;33.594;-117.718;2023-03-31T05:04:32;4.27;;;1.90;;
16524;SDS011;8375;33.594;-117.718;2023-03-31T05:07:03;2.97;;;1.57;;
16524;SDS011;8375;33.594;-117.718;2023-03-31T05:09:32;5.13;;;1.80;;
16524;SDS011;8375;33.594;-117.718;2023-03-31T05:12:01;6.20;;;1.50;;
16524;SDS011;8375;33.594;-117.718;2023-03-31T05:14:30;6.40;;;1.90;;
16524;SDS011;8375;33.594;-117.718;2023-03-31T05:17:05;4.17;;;1.43;;
16524;SDS011;8375;33.594;-117.718;2023-03-31T05:19:35;3.73;;;1.57;;
16524;SDS011;8375;33.594;-117.718;2023-03-31T05:22:04;6.40;;;1.70;;
16524;SDS011;8375;33.594;-117.718;2023-03-31T05:24:35;7.57;;;2.17;;
16524;SDS011;8375;33.594;-117.718;2023-03-31T05:27:04;5.17;;;2.50;;
16524;SDS011;8375;33.594;-117.718;2023-03-31T05:29:32;5.00;;;1.60;;
16524;SDS011;8375;33.594;-117.718;2023-03-31T05:32:01;3.07;;;1.40;;
16524;SDS011;8375;33.594;-117.718;2023-03-31T05:34:35;7.50;;;1.63;;
16524;SDS011;8375;33.594;-117.718;2023-03-31T05:37:04;4.47;;;1.80;;
16524;SDS011;8375;33.594;-117.718;2023-03-31T05:39:33;3.67;;;2.10;;
16524;SDS011;8375;33.594;-117.718;2023-03-31T05:42:01;7.87;;;1.50;;
16524;SDS011;8375;33.594;-117.718;2023-03-31T05:44:30;3.83;;;1.87;;
16524;SDS011;8375;33.594;-117.718;2023-03-31T05:47:03;3.97;;;2.00;;
16524;SDS011;8375;33.594;-117.718;2023-03-31T05:49:31;5.10;;;1.67;;
16524;SDS011;8375;33.594;-117.718;2023-03-31T05:52:02;5.13;;;1.40;;
16524;SDS011;8375;33.594;-117.718;2023-03-31T05:54:31;3.23;;;1.10;;
16524;SDS011;8375;33.594;-117.718;2023-03-31T05:57:05;4.17;;;1.50;;
16524;SDS011;8375;33.594;-117.718;2023-03-31T05:59:34;4.93;;;1.80;;
16524;SDS011;8375;33.594;-117.718;2023-03-31T06:02:05;5.00;;;1.60;;
16524;SDS011;8375;33.594;-117.718;2023-03-31T06:04:34;4.93;;;1.70;;
16524;SDS011;8375;33.594;-117.718;2023-03-31T06:07:06;2.33;;;1.30;;
16524;SDS011;8375;33.594;-117.718;2023-03-31T06:09:34;3.23;;;1.73;;
16524;SDS011;8375;33.594;-117.718;2023-03-31T06:12:03;6.53;;;1.47;;
16524;SDS011;8375;33.594;-117.718;2023-03-31T06:14:33;10.37;;;2.30;;
16524;SDS011;8375;33.594;-117.718;2023-03-31T06:17:02;5.60;;;1.60;;
16524;SDS011;8375;33.594;-117.718;2023-03-31T06:19:31;4.07;;;1.50;;
16524;SDS011;8375;33.594;-117.718;2023-03-31T06:22:00;4.33;;;1.43;;
16524;SDS011;8375;33.594;-117.718;2023-03-31T06:24:35;5.20;;;1.50;;
16524;SDS011;8375;33.594;-117.718;2023-03-31T06:27:06;3.33;;;1.80;;
16524;SDS011;8375;33.594;-117.718;2023-03-31T06:29:35;4.07;;;1.67;;
16524;SDS011;8375;33.594;-117.718;2023-03-31T06:32:04;4.00;;;1.87;;
16524;SDS011;8375;33.594;-117.718;2023-03-31T06:34:33;6.80;;;1.80;;
16524;SDS011;8375;33.594;-117.718;2023-03-31T06:37:03;4.57;;;1.50;;
16524;SDS011;8375;33.594;-117.718;2023-03-31T06:39:36;8.30;;;1.80;;
16524;SDS011;8375;33.594;-117.718;2023-03-31T06:42:10;5.87;;;2.30;;
16524;SDS011;8375;33.594;-117.718;2023-03-31T06:44:39;2.87;;;1.80;;
16524;SDS011;8375;33.594;-117.718;2023-03-31T06:47:10;4.30;;;1.67;;
16524;SDS011;8375;33.594;-117.718;2023-03-31T06:49:38;5.17;;;1.97;;
16524;SDS011;8375;33.594;-117.718;2023-03-31T06:52:07;5.10;;;1.93;;
16524;SDS011;8375;33.594;-117.718;2023-03-31T06:54:37;6.60;;;2.20;;
16524;SDS011;8375;33.594;-117.718;2023-03-31T06:57:06;7.70;;;1.90;;
16524;SDS011;8375;33.594;-117.718;2023-03-31T06:59:35;2.73;;;1.60;;
16524;SDS011;8375;33.594;-117.718;2023-03-31T07:02:04;7.70;;;1.87;;
16524;SDS011;8375;33.594;-117.718;2023-03-31T07:04:33;3.80;;;1.83;;
16524;SDS011;8375;33.594;-117.718;2023-03-31T07:07:02;6.67;;;1.90;;
16524;SDS011;8375;33.594;-117.718;2023-03-31T07:09:31;4.67;;;1.67;;
16524;SDS011;8375;33.594;-117.718;2023-03-31T07:12:04;4.80;;;2.30;;
16524;SDS011;8375;33.594;-117.718;2023-03-31T07:14:34;6.13;;;2.07;;
16524;SDS011;8375;33.594;-117.718;2023-03-31T07:17:06;6.47;;;2.27;;
16524;SDS011;8375;33.594;-117.718;2023-03-31T07:19:35;8.17;;;2.30;;
16524;SDS011;8375;33.594;-117.718;2023-03-31T07:22:06;3.53;;;1.60;;
16524;SDS011;8375;33.594;-117.718;2023-03-31T07:24:37;6.00;;;2.10;;
16524;SDS011;8375;33.594;-117.718;2023-03-31T07:27:10;5.73;;;1.93;;
16524;SDS011;8375;33.594;-117.718;2023-03-31T07:29:38;5.27;;;1.83;;
16524;SDS011;8375;33.594;-117.718;2023-03-31T07:32:07;6.57;;;2.13;;
16524;SDS011;8375;33.594;-117.718;2023-03-31T07:34:36;5.83;;;1.60;;
16524;SDS011;8375;33.594;-117.718;2023-03-31T07:37:06;4.17;;;1.77;;
16524;SDS011;8375;33.594;-117.718;2023-03-31T07:39:34;5.53;;;2.47;;
16524;SDS011;8375;33.594;-117.718;2023-03-31T07:42:03;6.43;;;1.80;;
16524;SDS011;8375;33.594;-117.718;2023-03-31T07:44:34;7.33;;;2.30;;
16524;SDS011;8375;33.594;-117.718;2023-03-31T07:47:03;4.17;;;2.00;;
16524;SDS011;8375;33.594;-117.718;2023-03-31T07:49:32;7.70;;;2.10;;
16524;SDS011;8375;33.594;-117.718;2023-03-31T07:52:01;5.43;;;1.83;;
16524;SDS011;8375;33.594;-117.718;2023-03-31T07:54:30;2.57;;;1.70;;
16524;SDS011;8375;33.594;-117.718;2023-03-31T07:57:01;5.10;;;1.73;;
16524;SDS011;8375;33.594;-117.718;2023-03-31T07:59:30;6.93;;;1.80;;
16524;SDS011;8375;33.594;-117.718;2023-03-31T08:02:01;5.13;;;1.37;;
16524;SDS011;8375;33.594;-117.718;2023-03-31T08:04:29;5.77;;;1.90;;
16524;SDS011;8375;33.594;-117.718;2023-03-31T08:06:58;5.40;;;1.70;;
16524;SDS011;8375;33.594;-117.718;2023-03-31T08:09:27;3.40;;;1.40;;
16524;SDS011;8375;33.594;-117.718;2023-03-31T08:11:56;4.50;;;2.00;;
16524;SDS011;8375;33.594;-117.718;2023-03-31T08:14:25;5.00;;;1.73;;
16524;SDS011;8375;33.594;-117.718;2023-03-31T08:16:53;4.87;;;1.77;;
16524;SDS011;8375;33.594;-117.718;2023-03-31T08:19:24;7.67;;;1.90;;
16524;SDS011;8375;33.594;-117.718;2023-03-31T08:21:53;6.13;;;1.87;;
16524;SDS011;8375;33.594;-117.718;2023-03-31T08:24:22;6.63;;;1.53;;
16524;SDS011;8375;33.594;-117.718;2023-03-31T08:26:50;5.53;;;1.60;;
16524;SDS011;8375;33.594;-117.718;2023-03-31T08:29:19;7.00;;;1.83;;
16524;SDS011;8375;33.594;-117.718;2023-03-31T08:31:52;4.00;;;1.50;;
16524;SDS011;8375;33.594;-117.718;2023-03-31T08:34:21;5.83;;;2.20;;
16524;SDS011;8375;33.594;-117.718;2023-03-31T08:36:53;4.73;;;1.77;;
16524;SDS011;8375;33.594;-117.718;2023-03-31T08:39:21;4.80;;;2.00;;
16524;SDS011;8375;33.594;-117.718;2023-03-31T08:41:53;6.30;;;1.70;;
16524;SDS011;8375;33.594;-117.718;2023-03-31T08:44:26;4.07;;;1.90;;
16524;SDS011;8375;33.594;-117.718;2023-03-31T08:46:59;5.23;;;1.73;;
16524;SDS011;8375;33.594;-117.718;2023-03-31T08:49:32;6.50;;;2.10;;
16524;SDS011;8375;33.594;-117.718;2023-03-31T08:52:09;5.40;;;1.70;;
16524;SDS011;8375;33.594;-117.718;2023-03-31T08:54:41;4.70;;;1.80;;
16524;SDS011;8375;33.594;-117.718;2023-03-31T08:57:15;3.73;;;2.07;;
16524;SDS011;8375;33.594;-117.718;2023-03-31T08:59:48;4.73;;;1.80;;
16524;SDS011;8375;33.594;-117.718;2023-03-31T09:02:20;4.80;;;1.80;;
16524;SDS011;8375;33.594;-117.718;2023-03-31T09:05:01;5.23;;;1.87;;
16524;SDS011;8375;33.594;-117.718;2023-03-31T09:07:46;9.17;;;2.07;;
16524;SDS011;8375;33.594;-117.718;2023-03-31T09:10:25;6.73;;;2.00;;
16524;SDS011;8375;33.594;-117.718;2023-03-31T09:13:03;4.87;;;2.00;;
16524;SDS011;8375;33.594;-117.718;2023-03-31T09:15:45;9.57;;;2.30;;
16524;SDS011;8375;33.594;-117.718;2023-03-31T09:18:26;3.97;;;1.93;;
16524;SDS011;8375;33.594;-117.718;2023-03-31T09:20:59;4.90;;;1.60;;
16524;SDS011;8375;33.594;-117.718;2023-03-31T09:23:35;6.17;;;2.00;;
16524;SDS011;8375;33.594;-117.718;2023-03-31T09:26:10;7.20;;;2.20;;
16524;SDS011;8375;33.594;-117.718;2023-03-31T09:28:48;7.50;;;2.40;;
16524;SDS011;8375;33.594;-117.718;2023-03-31T09:31:19;7.10;;;2.07;;
16524;SDS011;8375;33.594;-117.718;2023-03-31T09:33:48;8.70;;;2.40;;
16524;SDS011;8375;33.594;-117.718;2023-03-31T09:36:21;4.97;;;1.80;;
16524;SDS011;8375;33.594;-117.718;2023-03-31T09:38:52;6.33;;;1.63;;
16524;SDS011;8375;33.594;-117.718;2023-03-31T09:41:21;4.23;;;2.03;;
16524;SDS011;8375;33.594;-117.718;2023-03-31T09:43:50;5.17;;;2.40;;
16524;SDS011;8375;33.594;-117.718;2023-03-31T09:46:21;3.10;;;1.80;;
16524;SDS011;8375;33.594;-117.718;2023-03-31T09:48:57;5.27;;;1.97;;
16524;SDS011;8375;33.594;-117.718;2023-03-31T09:51:31;4.33;;;2.17;;
16524;SDS011;8375;33.594;-117.718;2023-03-31T09:54:06;3.30;;;2.07;;
16524;SDS011;8375;33.594;-117.718;2023-03-31T09:56:45;5.33;;;2.43;;
16524;SDS011;8375;33.594;-117.718;2023-03-31T09:59:17;5.30;;;2.00;;
16524;SDS011;8375;33.594;-117.718;2023-03-31T10:01:48;5.03;;;2.07;;
16524;SDS011;8375;33.594;-117.718;2023-03-31T10:04:20;6.97;;;2.20;;
16524;SDS011;8375;33.594;-117.718;2023-03-31T10:06:51;3.40;;;1.97;;
16524;SDS011;8375;33.594;-117.718;2023-03-31T10:09:23;6.80;;;2.00;;
16524;SDS011;8375;33.594;-117.718;2023-03-31T10:11:57;4.93;;;1.93;;
16524;SDS011;8375;33.594;-117.718;2023-03-31T10:14:32;5.37;;;2.43;;
16524;SDS011;8375;33.594;-117.718;2023-03-31T10:17:08;4.57;;;2.50;;
16524;SDS011;8375;33.594;-117.718;2023-03-31T10:19:46;4.70;;;2.10;;
16524;SDS011;8375;33.594;-117.718;2023-03-31T10:22:25;4.70;;;2.00;;
16524;SDS011;8375;33.594;-117.718;2023-03-31T10:25:03;8.43;;;2.80;;
16524;SDS011;8375;33.594;-117.718;2023-03-31T10:27:37;6.13;;;2.07;;
16524;SDS011;8375;33.594;-117.718;2023-03-31T10:30:08;2.93;;;2.00;;
16524;SDS011;8375;33.594;-117.718;2023-03-31T10:32:43;4.23;;;2.30;;
16524;SDS011;8375;33.594;-117.718;2023-03-31T10:35:15;4.47;;;2.23;;
16524;SDS011;8375;33.594;-117.718;2023-03-31T10:37:53;7.17;;;2.60;;
16524;SDS011;8375;33.594;-117.718;2023-03-31T10:40:26;9.40;;;3.00;;
16524;SDS011;8375;33.594;-117.718;2023-03-31T10:43:01;5.70;;;2.67;;
16524;SDS011;8375;33.594;-117.718;2023-03-31T10:45:40;3.73;;;2.63;;
16524;SDS011;8375;33.594;-117.718;2023-03-31T10:48:16;3.80;;;2.10;;
16524;SDS011;8375;33.594;-117.718;2023-03-31T10:50:47;5.30;;;2.23;;
16524;SDS011;8375;33.594;-117.718;2023-03-31T10:53:16;6.77;;;2.40;;
16524;SDS011;8375;33.594;-117.718;2023-03-31T10:55:49;5.83;;;1.90;;
16524;SDS011;8375;33.594;-117.718;2023-03-31T10:58:31;3.43;;;1.87;;
16524;SDS011;8375;33.594;-117.718;2023-03-31T11:01:11;3.00;;;1.80;;
16524;SDS011;8375;33.594;-117.718;2023-03-31T11:07:11;2.77;;;1.30;;
16524;SDS011;8375;33.594;-117.718;2023-03-31T11:09:54;3.40;;;1.60;;
16524;SDS011;8375;33.594;-117.718;2023-03-31T11:12:39;5.43;;;1.90;;
16524;SDS011;8375;33.594;-117.718;2023-03-31T11:15:17;4.77;;;1.80;;
16524;SDS011;8375;33.594;-117.718;2023-03-31T11:18:12;4.13;;;2.20;;
16524;SDS011;8375;33.594;-117.718;2023-03-31T11:20:55;4.37;;;1.90;;
16524;SDS011;8375;33.594;-117.718;2023-03-31T11:23:36;5.57;;;2.10;;
16524;SDS011;8375;33.594;-117.718;2023-03-31T11:26:09;3.43;;;1.67;;
16524;SDS011;8375;33.594;-117.718;2023-03-31T11:28:51;3.87;;;2.00;;
16524;SDS011;8375;33.594;-117.718;2023-03-31T11:31:30;5.20;;;2.00;;
16524;SDS011;8375;33.594;-117.718;2023-03-31T11:34:13;4.23;;;2.00;;
16524;SDS011;8375;33.594;-117.718;2023-03-31T11:37:07;6.57;;;2.00;;
16524;SDS011;8375;33.594;-117.718;2023-03-31T11:39:49;5.57;;;2.07;;
16524;SDS011;8375;33.594;-117.718;2023-03-31T11:42:31;5.07;;;1.93;;
16524;SDS011;8375;33.594;-117.718;2023-03-31T11:45:10;7.67;;;2.40;;
16524;SDS011;8375;33.594;-117.718;2023-03-31T11:47:43;5.97;;;1.93;;
16524;SDS011;8375;33.594;-117.718;2023-03-31T11:50:14;6.73;;;2.00;;
16524;SDS011;8375;33.594;-117.718;2023-03-31T11:52:47;6.50;;;2.23;;
16524;SDS011;8375;33.594;-117.718;2023-03-31T11:55:23;4.93;;;2.00;;
16524;SDS011;8375;33.594;-117.718;2023-03-31T11:57:57;3.73;;;1.70;;
16524;SDS011;8375;33.594;-117.718;2023-03-31T12:00:32;3.83;;;1.90;;
16524;SDS011;8375;33.594;-117.718;2023-03-31T12:03:08;4.57;;;1.87;;
16524;SDS011;8375;33.594;-117.718;2023-03-31T12:05:42;4.13;;;2.10;;
16524;SDS011;8375;33.594;-117.718;2023-03-31T12:08:14;5.53;;;1.90;;
16524;SDS011;8375;33.594;-117.718;2023-03-31T12:10:50;5.93;;;2.03;;
16524;SDS011;8375;33.594;-117.718;2023-03-31T12:13:33;4.10;;;2.17;;
16524;SDS011;8375;33.594;-117.718;2023-03-31T12:16:11;8.70;;;2.47;;
16524;SDS011;8375;33.594;-117.718;2023-03-31T12:18:48;4.60;;;2.20;;
16524;SDS011;8375;33.594;-117.718;2023-03-31T12:21:26;4.67;;;1.80;;
16524;SDS011;8375;33.594;-117.718;2023-03-31T12:23:57;8.83;;;1.97;;
16524;SDS011;8375;33.594;-117.718;2023-03-31T12:26:29;3.67;;;2.00;;
16524;SDS011;8375;33.594;-117.718;2023-03-31T12:29:09;5.80;;;1.97;;
16524;SDS011;8375;33.594;-117.718;2023-03-31T12:31:51;4.20;;;1.90;;
16524;SDS011;8375;33.594;-117.718;2023-03-31T12:34:22;6.23;;;1.70;;
16524;SDS011;8375;33.594;-117.718;2023-03-31T12:36:59;4.17;;;1.90;;
16524;SDS011;8375;33.594;-117.718;2023-03-31T12:39:39;7.03;;;1.97;;
16524;SDS011;8375;33.594;-117.718;2023-03-31T12:42:32;4.57;;;1.93;;
16524;SDS011;8375;33.594;-117.718;2023-03-31T12:45:13;5.43;;;1.80;;
16524;SDS011;8375;33.594;-117.718;2023-03-31T12:48:08;4.60;;;1.57;;
16524;SDS011;8375;33.594;-117.718;2023-03-31T12:51:03;4.20;;;1.50;;
16524;SDS011;8375;33.594;-117.718;2023-03-31T12:53:42;4.53;;;1.80;;
16524;SDS011;8375;33.594;-117.718;2023-03-31T12:56:21;2.60;;;1.50;;
16524;SDS011;8375;33.594;-117.718;2023-03-31T12:58:50;6.03;;;2.40;;
16524;SDS011;8375;33.594;-117.718;2023-03-31T13:01:19;3.97;;;2.00;;
16524;SDS011;8375;33.594;-117.718;2023-03-31T13:03:57;4.70;;;1.40;;
16524;SDS011;8375;33.594;-117.718;2023-03-31T13:06:47;2.50;;;1.37;;
16524;SDS011;8375;33.594;-117.718;2023-03-31T13:09:41;3.03;;;1.60;;
16524;SDS011;8375;33.594;-117.718;2023-03-31T13:12:18;3.90;;;1.37;;
16524;SDS011;8375;33.594;-117.718;2023-03-31T13:14:50;3.47;;;1.40;;
16524;SDS011;8375;33.594;-117.718;2023-03-31T13:17:28;2.63;;;1.33;;
16524;SDS011;8375;33.594;-117.718;2023-03-31T13:20:21;2.33;;;1.30;;
16524;SDS011;8375;33.594;-117.718;2023-03-31T13:23:03;2.50;;;1.40;;
16524;SDS011;8375;33.594;-117.718;2023-03-31T13:28:16;4.97;;;1.80;;
16524;SDS011;8375;33.594;-117.718;2023-03-31T13:31:00;5.90;;;1.60;;
16524;SDS011;8375;33.594;-117.718;2023-03-31T13:33:39;3.37;;;1.50;;
16524;SDS011;8375;33.594;-117.718;2023-03-31T13:36:34;7.20;;;1.70;;
16524;SDS011;8375;33.594;-117.718;2023-03-31T13:39:27;9.03;;;1.97;;
16524;SDS011;8375;33.594;-117.718;2023-03-31T13:42:16;4.70;;;1.53;;
16524;SDS011;8375;33.594;-117.718;2023-03-31T13:45:04;4.40;;;1.70;;
16524;SDS011;8375;33.594;-117.718;2023-03-31T13:47:51;3.57;;;1.80;;
16524;SDS011;8375;33.594;-117.718;2023-03-31T13:50:31;6.10;;;2.20;;
16524;SDS011;8375;33.594;-117.718;2023-03-31T13:53:28;4.70;;;1.53;;
16524;SDS011;8375;33.594;-117.718;2023-03-31T13:56:24;2.23;;;1.53;;
16524;SDS011;8375;33.594;-117.718;2023-03-31T13:59:15;4.50;;;1.83;;
16524;SDS011;8375;33.594;-117.718;2023-03-31T14:05:19;4.53;;;1.80;;
16524;SDS011;8375;33.594;-117.718;2023-03-31T14:07:53;5.77;;;2.20;;
16524;SDS011;8375;33.594;-117.718;2023-03-31T14:10:28;4.37;;;1.70;;
16524;SDS011;8375;33.594;-117.718;2023-03-31T14:13:05;3.90;;;1.63;;
16524;SDS011;8375;33.594;-117.718;2023-03-31T14:15:36;2.37;;;1.67;;
16524;SDS011;8375;33.594;-117.718;2023-03-31T14:18:10;4.07;;;1.60;;
16524;SDS011;8375;33.594;-117.718;2023-03-31T14:20:48;2.57;;;1.50;;
16524;SDS011;8375;33.594;-117.718;2023-03-31T14:23:37;4.37;;;1.60;;
16524;SDS011;8375;33.594;-117.718;2023-03-31T14:26:24;3.83;;;2.10;;
16524;SDS011;8375;33.594;-117.718;2023-03-31T14:29:12;4.33;;;1.97;;
16524;SDS011;8375;33.594;-117.718;2023-03-31T14:31:52;6.40;;;2.10;;
16524;SDS011;8375;33.594;-117.718;2023-03-31T14:34:34;3.40;;;1.50;;
16524;SDS011;8375;33.594;-117.718;2023-03-31T14:37:14;7.13;;;1.90;;
16524;SDS011;8375;33.594;-117.718;2023-03-31T14:39:46;4.07;;;1.87;;
16524;SDS011;8375;33.594;-117.718;2023-03-31T14:42:22;5.27;;;2.20;;
16524;SDS011;8375;33.594;-117.718;2023-03-31T14:44:57;6.37;;;2.23;;
16524;SDS011;8375;33.594;-117.718;2023-03-31T14:47:31;4.43;;;1.80;;
16524;SDS011;8375;33.594;-117.718;2023-03-31T14:50:04;4.22;;;1.80;;
16524;SDS011;8375;33.594;-117.718;2023-03-31T14:52:39;3.80;;;1.85;;
16524;SDS011;8375;33.594;-117.718;2023-03-31T14:55:14;3.55;;;1.38;;
16524;SDS011;8375;33.594;-117.718;2023-03-31T14:57:45;5.53;;;1.80;;
16524;SDS011;8375;33.594;-117.718;2023-03-31T15:00:22;5.13;;;1.63;;
16524;SDS011;8375;33.594;-117.718;2023-03-31T15:02:54;3.38;;;1.73;;
16524;SDS011;8375;33.594;-117.718;2023-03-31T15:05:25;5.05;;;1.63;;
16524;SDS011;8375;33.594;-117.718;2023-03-31T15:07:57;4.38;;;1.70;;
16524;SDS011;8375;33.594;-117.718;2023-03-31T15:10:27;3.05;;;1.55;;
16524;SDS011;8375;33.594;-117.718;2023-03-31T15:13:02;3.45;;;1.80;;
16524;SDS011;8375;33.594;-117.718;2023-03-31T15:15:35;3.72;;;1.55;;